Time;durP1;ratioP1;P1;durP2;ratioP2;P2;SDS_P1;SDS_P2;PMS_P1;PMS_P2;Temp;Humidity;BMP_temperature;BMP_pressure;BME280_temperature;BME280_humidity;BME280_pressure;Samples;Min_cycle;Max_cycle;Signal;HPM_P1;HPM_P2
2023/10/22 00:00:53;;;;;;;;;;;;;;;13.61;100.00;99629.84;5030386;28;19921;-75
2023/10/22 00:03:18;;;;;;;;;;;;;;;13.70;100.00;99628.94;5032809;28;19916;-75
2023/10/22 00:05:44;;;;;;;;;;;;;;;13.63;100.00;99628.69;5025963;28;21897;-75
2023/10/22 00:08:09;;;;;;;;;;;;;;;13.55;100.00;99633.06;5033550;28;19938;-74
2023/10/22 00:10:35;;;;;;;;;;;;;;;13.72;100.00;99641.19;5029947;28;19921;-74
2023/10/22 00:13:00;;;;;;;;;;;;;;;13.65;100.00;99633.88;5027121;28;19917;-75
2023/10/22 00:15:25;;;;;;;;;;;;;;;13.60;100.00;99630.78;5026937;28;20620;-75
2023/10/22 00:17:51;;;;;;;;;;;;;;;13.62;100.00;99632.34;5021707;28;19952;-75
2023/10/22 00:20:16;;;;;;;;;;;;;;;13.57;100.00;99631.94;5027109;28;20283;-76
2023/10/22 00:22:42;;;;;;;;;;;;;;;13.59;100.00;99645.19;5025483;28;19920;-75
2023/10/22 00:25:07;;;;;;;;;;;;;;;13.52;100.00;99639.59;5034180;28;19932;-75
2023/10/22 00:27:33;;;;;;;;;;;;;;;13.60;100.00;99638.84;5021756;28;19921;-75
2023/10/22 00:29:59;;;;;;;;;;;;;;;13.58;100.00;99638.16;5033670;28;19971;-75
2023/10/22 00:32:24;;;;;;;;;;;;;;;13.59;100.00;99642.50;5033178;28;19916;-74
2023/10/22 00:34:49;;;;;;;;;;;;;;;13.57;100.00;99640.00;5032689;28;20004;-75
2023/10/22 00:37:15;;;;;;;;;;;;;;;13.65;100.00;99650.78;5033859;28;19921;-75
2023/10/22 00:39:41;;;;;;;;;;;;;;;13.63;100.00;99652.78;5036627;28;19928;-75
2023/10/22 00:42:07;;;;;;;;;;;;;;;13.60;100.00;99647.72;5033011;28;20826;-74
2023/10/22 00:44:32;;;;;;;;;;;;;;;13.61;100.00;99649.44;5026684;28;20032;-76
2023/10/22 00:46:58;;;;;;;;;;;;;;;13.65;100.00;99644.59;5027705;28;19923;-76
2023/10/22 00:49:23;;;;;;;;;;;;;;;13.58;100.00;99652.38;5032560;28;19928;-75
2023/10/22 00:51:50;;;;;;;;;;;;;;;13.54;100.00;99656.34;5033745;28;19952;-74
2023/10/22 00:54:16;;;;;;;;;;;;;;;13.59;100.00;99664.78;5026772;28;19964;-74
2023/10/22 00:56:42;;;;;;;;;;;;;;;13.56;100.00;99662.41;5032747;28;19955;-74
2023/10/22 00:59:08;;;;;;;;;;;;;;;13.58;100.00;99656.91;5033096;28;19921;-75
2023/10/22 01:01:33;;;;;;;;;;;;;;;13.55;100.00;99663.38;5022009;28;19917;-75
2023/10/22 01:03:59;;;;;;;;;;;;;;;13.59;100.00;99664.78;5019408;28;19917;-74
2023/10/22 01:06:24;;;;;;;;;;;;;;;13.56;100.00;99661.56;5032328;28;20047;-74
2023/10/22 01:08:50;;;;;;;;;;;;;;;13.54;100.00;99666.22;5030346;28;20831;-74
2023/10/22 01:11:15;;;;;;;;;;;;;;;13.57;100.00;99669.44;5037646;28;20011;-75
2023/10/22 01:13:40;;;;;;;;;;;;;;;13.65;100.00;99660.66;5031763;28;20449;-75
2023/10/22 01:16:09;;;;;;;;;;;;;;;13.64;100.00;99667.88;5020717;28;19921;-73
2023/10/22 01:18:35;;;;;;;;;;;;;;;13.52;100.00;99669.03;5029668;28;19929;-75
2023/10/22 01:21:00;;;;;;;;;;;;;;;13.57;100.00;99668.59;5033224;28;19917;-73
2023/10/22 01:23:27;;;;;;;;;;;;;;;13.57;100.00;99658.72;5021415;28;19921;-74
2023/10/22 01:25:52;;;;;;;;;;;;;;;13.61;100.00;99670.84;5033360;28;19967;-74
2023/10/22 01:28:18;;;;;;;;;;;;;;;13.61;100.00;99657.47;5027705;28;19931;-74
2023/10/22 01:30:43;;;;;;;;;;;;;;;13.55;100.00;99666.06;5031098;28;19921;-75
2023/10/22 01:33:09;;;;;;;;;;;;;;;13.61;100.00;99670.84;5030634;28;19971;-74
2023/10/22 01:35:34;;;;;;;;;;;;;;;13.58;100.00;99672.97;5032086;28;19925;-74
2023/10/22 01:37:59;;;;;;;;;;;;;;;13.42;100.00;99665.53;5032845;28;19925;-77
2023/10/22 01:40:25;;;;;;;;;;;;;;;13.46;100.00;99675.81;5032009;28;19917;-75
2023/10/22 01:42:51;;;;;;;;;;;;;;;13.52;100.00;99677.06;5031844;28;19951;-75
2023/10/22 01:45:16;;;;;;;;;;;;;;;13.41;100.00;99677.25;5024851;28;19925;-75
2023/10/22 01:47:42;;;;;;;;;;;;;;;13.59;100.00;99674.66;5035624;28;19920;-75
2023/10/22 01:50:08;;;;;;;;;;;;;;;13.58;100.00;99681.84;5036342;28;19923;-74
2023/10/22 01:52:34;;;;;;;;;;;;;;;13.54;100.00;99677.75;5035758;28;19917;-75
2023/10/22 01:55:00;;;;;;;;;;;;;;;13.49;100.00;99688.06;5036429;28;20019;-75
2023/10/22 01:57:25;;;;;;;;;;;;;;;13.52;100.00;99674.41;5033394;28;20730;-75
2023/10/22 01:59:50;;;;;;;;;;;;;;;13.57;100.00;99692.72;5044000;28;21477;-76
2023/10/22 02:02:16;;;;;;;;;;;;;;;13.55;100.00;99686.63;5032791;28;20099;-76
2023/10/22 02:04:41;;;;;;;;;;;;;;;13.53;100.00;99694.00;5043250;28;19971;-76
2023/10/22 02:07:07;;;;;;;;;;;;;;;13.57;100.00;99698.06;5035106;28;19934;-75
2023/10/22 02:09:32;;;;;;;;;;;;;;;13.53;100.00;99700.19;5033814;28;19921;-75
2023/10/22 02:11:57;;;;;;;;;;;;;;;13.55;100.00;99702.72;5039253;28;20243;-75
2023/10/22 02:14:23;;;;;;;;;;;;;;;13.52;100.00;99698.50;5033403;28;20604;-74
2023/10/22 02:16:48;;;;;;;;;;;;;;;13.50;100.00;99710.34;5033730;28;19920;-75
2023/10/22 02:19:13;;;;;;;;;;;;;;;13.54;100.00;99703.72;5020134;28;28816;-75
2023/10/22 02:21:39;;;;;;;;;;;;;;;13.52;100.00;99719.09;5023356;28;19917;-74
2023/10/22 02:24:04;;;;;;;;;;;;;;;13.55;100.00;99714.25;5031422;28;19917;-75
2023/10/22 02:26:29;;;;;;;;;;;;;;;13.44;100.00;99730.50;5035829;28;19978;-76
2023/10/22 02:28:55;;;;;;;;;;;;;;;13.54;100.00;99731.34;5037081;28;33614;-76
2023/10/22 02:31:20;;;;;;;;;;;;;;;13.40;100.00;99732.66;5029818;28;19921;-75
2023/10/22 02:33:46;;;;;;;;;;;;;;;13.33;100.00;99734.19;5036441;28;19916;-75
2023/10/22 02:36:11;;;;;;;;;;;;;;;13.45;100.00;99745.56;5029646;28;20015;-74
2023/10/22 02:38:37;;;;;;;;;;;;;;;13.28;100.00;99746.31;5039027;28;19924;-74
2023/10/22 02:41:02;;;;;;;;;;;;;;;13.39;100.00;99754.19;5033836;28;19960;-74
2023/10/22 02:43:28;;;;;;;;;;;;;;;13.42;100.00;99757.44;5033902;28;19921;-73
2023/10/22 02:45:54;;;;;;;;;;;;;;;13.35;100.00;99766.16;5027681;28;19936;-76
2023/10/22 02:48:20;;;;;;;;;;;;;;;13.37;100.00;99773.09;5027775;28;19917;-74
2023/10/22 02:50:46;;;;;;;;;;;;;;;13.20;100.00;99784.44;5018277;28;19921;-75
2023/10/22 02:53:12;;;;;;;;;;;;;;;13.23;100.00;99778.84;5034577;28;19917;-75
2023/10/22 02:55:38;;;;;;;;;;;;;;;13.21;100.00;99803.09;5024937;28;19932;-75
2023/10/22 02:58:04;;;;;;;;;;;;;;;13.02;100.00;99811.06;5023798;28;19924;-76
2023/10/22 03:00:29;;;;;;;;;;;;;;;12.95;100.00;99815.25;5021811;28;19925;-76
2023/10/22 03:02:55;;;;;;;;;;;;;;;12.75;100.00;99829.56;5027770;28;20453;-75
2023/10/22 03:05:20;;;;;;;;;;;;;;;12.77;100.00;99841.84;5032620;28;19976;-76
2023/10/22 03:07:46;;;;;;;;;;;;;;;12.71;100.00;99842.41;5030702;28;19921;-76
2023/10/22 03:10:11;;;;;;;;;;;;;;;12.63;100.00;99852.91;5067231;28;20744;-76
2023/10/22 03:12:37;;;;;;;;;;;;;;;12.67;100.00;99863.22;5032449;28;20702;-76
2023/10/22 03:15:03;;;;;;;;;;;;;;;12.60;100.00;99867.41;5037456;28;19924;-76
2023/10/22 03:17:28;;;;;;;;;;;;;;;12.68;100.00;99874.75;5002566;28;19921;-77
2023/10/22 03:19:54;;;;;;;;;;;;;;;12.59;100.00;99880.91;5047501;28;19921;-77
2023/10/22 03:22:21;;;;;;;;;;;;;;;12.64;100.00;99882.19;5024115;28;19975;-76
2023/10/22 03:24:50;;;;;;;;;;;;;;;12.55;100.00;99885.69;5034713;28;20000;-76
2023/10/22 03:27:15;;;;;;;;;;;;;;;12.63;100.00;99899.22;5019719;28;19928;-77
2023/10/22 03:29:40;;;;;;;;;;;;;;;12.58;100.00;99898.78;5034746;28;19963;-77
2023/10/22 03:32:08;;;;;;;;;;;;;;;12.61;100.00;99906.53;5025431;28;20035;-76
2023/10/22 03:34:33;;;;;;;;;;;;;;;12.61;100.00;99916.41;5026650;28;19925;-77
2023/10/22 03:37:00;;;;;;;;;;;;;;;12.55;100.00;99923.13;5023097;28;20011;-75
2023/10/22 03:39:27;;;;;;;;;;;;;;;12.52;100.00;99930.56;5037655;28;19995;-76
2023/10/22 03:41:52;;;;;;;;;;;;;;;12.64;100.00;99937.50;5042551;28;19916;-77
2023/10/22 03:44:17;;;;;;;;;;;;;;;12.63;100.00;99938.50;5033292;28;20036;-76
2023/10/22 03:46:46;;;;;;;;;;;;;;;12.57;100.00;99937.19;5034798;28;19916;-76
2023/10/22 03:49:11;;;;;;;;;;;;;;;12.59;100.00;99940.59;5030261;28;19924;-76
2023/10/22 03:51:37;;;;;;;;;;;;;;;12.62;100.00;99948.34;5023770;28;19968;-76
2023/10/22 03:54:03;;;;;;;;;;;;;;;12.62;100.00;99955.53;5019038;28;19921;-77
2023/10/22 03:56:28;;;;;;;;;;;;;;;12.63;100.00;99949.19;5032625;28;19923;-77
2023/10/22 03:58:53;;;;;;;;;;;;;;;12.63;100.00;99960.75;5026976;28;19917;-76
2023/10/22 04:01:19;;;;;;;;;;;;;;;12.62;100.00;99958.22;5032205;28;19923;-76
2023/10/22 04:03:44;;;;;;;;;;;;;;;12.65;100.00;99963.28;5026787;28;19932;-77
2023/10/22 04:06:09;;;;;;;;;;;;;;;12.59;100.00;99971.84;5026610;28;19917;-77
2023/10/22 04:08:35;;;;;;;;;;;;;;;12.66;100.00;99978.38;5031612;28;33588;-75
2023/10/22 04:11:01;;;;;;;;;;;;;;;12.60;100.00;99979.75;5029940;28;19917;-76
2023/10/22 04:13:26;;;;;;;;;;;;;;;12.64;100.00;99981.16;5036452;28;19944;-77
2023/10/22 04:15:52;;;;;;;;;;;;;;;12.58;100.00;99995.06;5030920;28;20028;-76
2023/10/22 04:18:19;;;;;;;;;;;;;;;12.62;100.00;100004.53;5033360;28;20330;-77
2023/10/22 04:20:44;;;;;;;;;;;;;;;12.55;100.00;100011.38;5032874;28;19917;-77
2023/10/22 04:23:09;;;;;;;;;;;;;;;12.59;100.00;100020.81;5030009;28;19947;-77
2023/10/22 04:25:38;;;;;;;;;;;;;;;12.56;100.00;100036.31;5025702;28;20554;-76
2023/10/22 04:28:03;;;;;;;;;;;;;;;12.51;100.00;100050.06;5029325;28;19928;-76
2023/10/22 04:30:28;;;;;;;;;;;;;;;12.38;100.00;100055.56;5026241;28;25385;-76
2023/10/22 04:32:53;;;;;;;;;;;;;;;12.46;100.00;100067.47;5026438;28;20446;-77
2023/10/22 04:35:19;;;;;;;;;;;;;;;12.38;100.00;100068.94;5031323;28;19921;-76
2023/10/22 04:37:44;;;;;;;;;;;;;;;12.47;100.00;100078.03;5029243;28;19924;-76
2023/10/22 04:40:09;;;;;;;;;;;;;;;12.44;100.00;100087.13;5028653;28;38933;-76
2023/10/22 04:42:35;;;;;;;;;;;;;;;12.47;100.00;100077.19;5027144;28;19956;-77
2023/10/22 04:45:00;;;;;;;;;;;;;;;12.48;100.00;100093.09;5022699;28;26850;-76
2023/10/22 04:47:25;;;;;;;;;;;;;;;12.44;100.00;100083.63;5023845;28;20422;-76
2023/10/22 04:49:51;;;;;;;;;;;;;;;12.46;100.00;100104.91;5024003;28;19971;-76
2023/10/22 04:52:33;;;;;;;;;;;;;;;12.39;100.00;100102.72;5020024;28;19928;-75
2023/10/22 04:54:59;;;;;;;;;;;;;;;12.40;100.00;100106.25;5034446;28;19991;-75
2023/10/22 04:57:26;;;;;;;;;;;;;;;12.41;100.00;100108.81;5027668;28;20205;-77
2023/10/22 04:59:51;;;;;;;;;;;;;;;12.35;100.00;100117.34;5020978;28;20390;-75
2023/10/22 05:02:16;;;;;;;;;;;;;;;12.32;100.00;100120.25;5037416;28;20027;-76
2023/10/22 05:04:44;;;;;;;;;;;;;;;12.31;100.00;100120.38;5035846;28;20006;-76
2023/10/22 05:07:09;;;;;;;;;;;;;;;12.29;100.00;100120.50;5018124;28;19929;-77
2023/10/22 05:09:35;;;;;;;;;;;;;;;12.35;100.00;100124.47;5030399;28;19928;-76
2023/10/22 05:12:00;;;;;;;;;;;;;;;12.30;100.00;100126.69;5021708;28;33783;-76
2023/10/22 05:14:25;;;;;;;;;;;;;;;12.25;100.00;100128.88;5027698;28;20043;-76
2023/10/22 05:16:53;;;;;;;;;;;;;;;12.23;100.00;100133.53;5027708;28;38101;-76
2023/10/22 05:19:19;;;;;;;;;;;;;;;12.24;100.00;100144.06;5029592;28;19924;-76
2023/10/22 05:21:44;;;;;;;;;;;;;;;12.29;100.00;100141.03;5035422;28;19929;-75
2023/10/22 05:24:09;;;;;;;;;;;;;;;12.26;100.00;100152.00;5022007;28;39925;-76
2023/10/22 05:26:35;;;;;;;;;;;;;;;12.33;100.00;100147.84;5022885;28;20051;-77
2023/10/22 05:29:00;;;;;;;;;;;;;;;12.33;100.00;100158.53;5028662;28;19917;-76
2023/10/22 05:31:25;;;;;;;;;;;;;;;12.34;100.00;100161.06;5040318;28;19925;-75
2023/10/22 05:33:50;;;;;;;;;;;;;;;12.33;100.00;100162.03;5029899;28;19917;-75
2023/10/22 05:36:16;;;;;;;;;;;;;;;12.29;100.00;100163.25;5032736;28;27107;-76
2023/10/22 05:38:42;;;;;;;;;;;;;;;12.34;100.00;100176.25;5035968;28;19948;-75
2023/10/22 05:41:08;;;;;;;;;;;;;;;12.34;100.00;100178.94;5028742;28;19921;-76
2023/10/22 05:43:33;;;;;;;;;;;;;;;12.37;100.00;100184.03;5031955;28;20437;-76
2023/10/22 05:45:58;;;;;;;;;;;;;;;12.37;100.00;100184.88;5027253;28;33345;-76
2023/10/22 05:48:23;;;;;;;;;;;;;;;12.35;100.00;100194.88;5029165;28;19960;-76
2023/10/22 05:50:50;;;;;;;;;;;;;;;12.39;100.00;100198.97;5024632;28;33324;-76
2023/10/22 05:53:16;;;;;;;;;;;;;;;12.31;100.00;100208.59;5026695;28;20107;-76
2023/10/22 05:55:41;;;;;;;;;;;;;;;12.38;100.00;100207.97;5022519;28;20017;-76
2023/10/22 05:58:06;;;;;;;;;;;;;;;12.37;100.00;100205.44;5028736;28;20733;-75
2023/10/22 06:00:32;;;;;;;;;;;;;;;12.35;100.00;100204.69;5027764;28;19921;-75
2023/10/22 06:02:57;;;;;;;;;;;;;;;12.41;100.00;100205.06;5029642;28;24158;-77
2023/10/22 06:05:23;;;;;;;;;;;;;;;12.31;100.00;100208.59;5031160;28;20032;-76
2023/10/22 06:07:48;;;;;;;;;;;;;;;12.33;100.00;100220.00;5019996;28;20068;-75
2023/10/22 06:10:14;;;;;;;;;;;;;;;12.33;100.00;100230.72;5018801;28;19921;-75
2023/10/22 06:12:39;;;;;;;;;;;;;;;12.34;100.00;100237.75;5030044;28;20035;-75
2023/10/22 06:15:04;;;;;;;;;;;;;;;12.36;100.00;100235.81;5031024;28;19971;-76
2023/10/22 06:17:30;;;;;;;;;;;;;;;12.46;100.00;100246.63;5033875;28;19940;-75
2023/10/22 06:19:56;;;;;;;;;;;;;;;12.43;100.00;100245.88;5028252;28;19975;-76
2023/10/22 06:22:22;;;;;;;;;;;;;;;12.39;100.00;100254.28;5030020;28;20019;-75
2023/10/22 06:24:47;;;;;;;;;;;;;;;12.38;100.00;100256.09;5028146;28;19959;-77
2023/10/22 06:27:13;;;;;;;;;;;;;;;12.49;100.00;100265.09;5031315;28;19917;-75
2023/10/22 06:29:38;;;;;;;;;;;;;;;12.46;100.00;100260.00;5020978;28;20788;-75
2023/10/22 06:32:03;;;;;;;;;;;;;;;12.51;100.00;100260.47;5031569;28;19917;-77
2023/10/22 06:34:29;;;;;;;;;;;;;;;12.49;100.00;100265.09;5034752;28;19920;-76
2023/10/22 06:36:55;;;;;;;;;;;;;;;12.41;100.00;100263.88;5031767;28;19921;-76
2023/10/22 06:39:21;;;;;;;;;;;;;;;12.44;100.00;100265.44;5027771;28;19921;-76
2023/10/22 06:41:46;;;;;;;;;;;;;;;12.32;100.00;100272.63;5030316;28;20114;-76
2023/10/22 06:44:15;;;;;;;;;;;;;;;12.50;100.00;100278.34;5021367;28;21501;-76
2023/10/22 06:46:41;;;;;;;;;;;;;;;12.36;100.00;100284.78;5034219;28;19943;-76
2023/10/22 06:49:06;;;;;;;;;;;;;;;12.39;100.00;100281.00;5031306;28;19928;-76
2023/10/22 06:51:31;;;;;;;;;;;;;;;12.49;100.00;100292.66;5020890;28;20028;-76
2023/10/22 06:53:56;;;;;;;;;;;;;;;12.66;100.00;100294.00;5031705;28;23366;-75
2023/10/22 06:56:22;;;;;;;;;;;;;;;12.84;100.00;100307.69;5031417;28;40383;-75
2023/10/22 06:58:47;;;;;;;;;;;;;;;12.98;100.00;100307.44;5024522;28;34811;-76
2023/10/22 07:01:14;;;;;;;;;;;;;;;13.20;100.00;100301.13;5029448;28;20044;-77
2023/10/22 07:03:40;;;;;;;;;;;;;;;13.37;100.00;100300.63;5030750;28;19959;-76
2023/10/22 07:06:05;;;;;;;;;;;;;;;13.52;100.00;100298.50;5029095;28;19917;-75
2023/10/22 07:08:30;;;;;;;;;;;;;;;13.89;100.00;100290.00;5033623;28;19925;-75
2023/10/22 07:10:56;;;;;;;;;;;;;;;14.15;100.00;100285.91;5026563;28;19917;-76
2023/10/22 07:13:22;;;;;;;;;;;;;;;14.61;100.00;100284.56;5029859;28;19983;-77
2023/10/22 07:15:47;;;;;;;;;;;;;;;15.14;100.00;100296.81;5036764;28;20432;-75
2023/10/22 07:18:13;;;;;;;;;;;;;;;15.00;100.00;100293.53;5024988;28;19921;-76
2023/10/22 07:20:38;;;;;;;;;;;;;;;14.07;100.00;100293.78;5035612;28;19921;-75
2023/10/22 07:23:04;;;;;;;;;;;;;;;13.44;100.00;100314.34;5037890;28;19917;-75
2023/10/22 07:25:29;;;;;;;;;;;;;;;13.28;100.00;100328.19;5043339;28;19921;-75
2023/10/22 07:27:55;;;;;;;;;;;;;;;13.26;100.00;100331.97;5021830;28;20736;-76
2023/10/22 07:30:20;;;;;;;;;;;;;;;13.44;100.00;100333.09;5038948;28;19921;-76
2023/10/22 07:32:45;;;;;;;;;;;;;;;13.46;100.00;100334.69;5032565;28;20016;-76
2023/10/22 07:35:14;;;;;;;;;;;;;;;13.24;100.00;100341.94;5032547;28;19920;-76
2023/10/22 07:37:41;;;;;;;;;;;;;;;13.16;100.00;100340.72;5035522;28;19928;-75
2023/10/22 07:40:07;;;;;;;;;;;;;;;12.88;100.00;100350.16;5032421;28;19923;-76
2023/10/22 07:42:34;;;;;;;;;;;;;;;12.93;100.00;100350.63;5032930;28;19928;-75
2023/10/22 07:44:59;;;;;;;;;;;;;;;12.82;100.00;100358.69;5031527;28;20016;-75
2023/10/22 07:47:24;;;;;;;;;;;;;;;12.73;100.00;100366.59;5034287;28;20786;-76
2023/10/22 07:49:51;;;;;;;;;;;;;;;12.77;100.00;100363.53;5031859;28;19927;-75
2023/10/22 07:52:16;;;;;;;;;;;;;;;12.74;100.00;100365.59;5036649;28;19917;-75
2023/10/22 07:54:44;;;;;;;;;;;;;;;12.79;100.00;100369.63;5026796;28;19928;-76
2023/10/22 07:57:09;;;;;;;;;;;;;;;12.83;100.00;100371.06;5036872;28;19920;-75
2023/10/22 07:59:34;;;;;;;;;;;;;;;12.89;100.00;100378.59;5035787;28;20029;-76
2023/10/22 08:01:59;;;;;;;;;;;;;;;12.93;100.00;100379.22;5031819;28;33073;-76
2023/10/22 08:04:25;;;;;;;;;;;;;;;12.64;100.00;100379.72;5035309;28;20065;-75
2023/10/22 08:06:50;;;;;;;;;;;;;;;12.88;100.00;100384.09;5024717;28;32754;-75
2023/10/22 08:09:15;;;;;;;;;;;;;;;12.79;100.00;100393.69;5035710;28;33011;-75
2023/10/22 08:11:40;;;;;;;;;;;;;;;12.84;100.00;100388.81;5033801;28;20728;-75
2023/10/22 08:14:06;;;;;;;;;;;;;;;12.89;100.00;100396.47;5041415;28;19920;-77
2023/10/22 08:16:31;;;;;;;;;;;;;;;12.91;100.00;100403.44;5044248;28;27359;-75
2023/10/22 08:18:56;;;;;;;;;;;;;;;12.86;100.00;100405.63;5045495;28;20037;-75
2023/10/22 08:21:22;;;;;;;;;;;;;;;12.94;100.00;100410.34;5033415;28;19916;-75
2023/10/22 08:23:48;;;;;;;;;;;;;;;12.98;100.00;100400.25;5031639;28;20049;-75
2023/10/22 08:26:13;;;;;;;;;;;;;;;13.01;100.00;100406.22;5033472;28;19921;-76
2023/10/22 08:28:38;;;;;;;;;;;;;;;12.98;100.00;100406.47;5028264;28;19917;-75
2023/10/22 08:31:03;;;;;;;;;;;;;;;12.99;100.00;100408.16;5031272;28;19921;-76
2023/10/22 08:33:31;;;;;;;;;;;;;;;13.07;100.00;100420.94;5035653;28;20003;-76
2023/10/22 08:36:03;;;;;;;;;;;;;;;13.08;100.00;100415.44;5026698;28;19979;-75
2023/10/22 08:38:28;;;;;;;;;;;;;;;13.06;100.00;100412.06;5027185;28;19917;-76
2023/10/22 08:40:53;;;;;;;;;;;;;;;13.08;100.00;100423.47;5033562;28;20031;-76
2023/10/22 08:43:19;;;;;;;;;;;;;;;13.18;100.00;100418.22;5035000;28;23073;-77
2023/10/22 08:45:50;;;;;;;;;;;;;;;13.33;100.00;100416.16;5044559;28;19971;-75
2023/10/22 08:48:17;;;;;;;;;;;;;;;13.46;100.00;100427.59;5025877;28;19928;-76
2023/10/22 08:50:43;;;;;;;;;;;;;;;13.64;100.00;100428.72;5021436;28;19995;-75
2023/10/22 08:53:11;;;;;;;;;;;;;;;13.82;100.00;100444.28;5038910;28;19917;-76
2023/10/22 08:55:36;;;;;;;;;;;;;;;13.72;100.00;100428.09;5028625;28;19932;-75
2023/10/22 08:58:02;;;;;;;;;;;;;;;13.81;100.00;100434.53;5031333;28;19924;-76
2023/10/22 09:00:28;;;;;;;;;;;;;;;13.83;100.00;100444.13;5030183;28;20027;-77
2023/10/22 09:02:53;;;;;;;;;;;;;;;14.00;100.00;100448.94;5033175;28;19921;-76
2023/10/22 09:05:19;;;;;;;;;;;;;;;14.20;100.00;100449.94;5034409;28;20695;-76
2023/10/22 09:07:52;;;;;;;;;;;;;;;14.41;100.00;100446.41;5034880;28;19920;-76
2023/10/22 09:10:25;;;;;;;;;;;;;;;14.70;100.00;100447.44;5029750;28;19917;-76
2023/10/22 09:12:50;;;;;;;;;;;;;;;14.91;100.00;100442.06;5029323;28;19917;-76
2023/10/22 09:15:16;;;;;;;;;;;;;;;14.92;100.00;100459.84;5035901;28;19925;-76
2023/10/22 09:17:42;;;;;;;;;;;;;;;14.93;100.00;100461.56;5028161;28;19917;-75
2023/10/22 09:20:21;;;;;;;;;;;;;;;15.16;100.00;100462.22;5035974;28;20910;-76
2023/10/22 09:22:46;;;;;;;;;;;;;;;15.08;100.00;100453.13;5028176;28;19966;-76
2023/10/22 09:25:12;;;;;;;;;;;;;;;15.06;100.00;100463.16;5035416;28;27772;-75
2023/10/22 09:27:39;;;;;;;;;;;;;;;15.14;100.00;100461.50;5026817;28;20031;-75
2023/10/22 09:30:05;;;;;;;;;;;;;;;15.21;100.00;100467.16;5023228;28;19916;-75
2023/10/22 09:32:30;;;;;;;;;;;;;;;15.19;100.00;100466.47;5033635;28;20007;-76
2023/10/22 09:35:10;;;;;;;;;;;;;;;15.14;100.00;100472.22;5023955;28;19994;-76
2023/10/22 09:37:49;;;;;;;;;;;;;;;15.24;100.00;100481.19;5023504;28;19999;-75
2023/10/22 09:40:21;;;;;;;;;;;;;;;15.35;100.00;100474.00;5028782;28;19917;-74
2023/10/22 09:42:50;;;;;;;;;;;;;;;15.33;100.00;100486.72;5030292;28;19959;-76
2023/10/22 09:45:17;;;;;;;;;;;;;;;15.69;100.00;100480.75;5034554;28;19943;-75
2023/10/22 09:47:45;;;;;;;;;;;;;;;15.67;100.00;100482.75;5026615;28;19916;-76
2023/10/22 09:50:12;;;;;;;;;;;;;;;15.62;100.00;100476.06;5032853;28;19966;-76
2023/10/22 09:52:42;;;;;;;;;;;;;;;15.62;100.00;100484.13;5033798;28;19928;-75
2023/10/22 09:55:11;;;;;;;;;;;;;;;15.66;100.00;100481.06;5032573;28;19994;-76
2023/10/22 09:57:36;;;;;;;;;;;;;;;15.74;100.00;100491.09;5033774;28;19924;-76
2023/10/22 10:00:10;;;;;;;;;;;;;;;15.73;100.00;100495.63;5027472;28;20035;-76
2023/10/22 10:02:35;;;;;;;;;;;;;;;15.53;100.00;100493.84;5015808;28;20350;-76
2023/10/22 10:05:02;;;;;;;;;;;;;;;15.42;100.00;100494.81;5032437;28;20035;-74
2023/10/22 10:07:27;;;;;;;;;;;;;;;15.12;100.00;100498.38;5035556;28;19921;-75
2023/10/22 10:09:55;;;;;;;;;;;;;;;15.27;100.00;100499.72;5031684;28;19925;-75
2023/10/22 10:12:21;;;;;;;;;;;;;;;15.23;100.00;100506.34;5027520;28;19928;-77
2023/10/22 10:14:47;;;;;;;;;;;;;;;15.43;100.00;100506.41;5029656;28;19932;-75
2023/10/22 10:17:13;;;;;;;;;;;;;;;15.45;100.00;100499.91;5040223;28;19916;-76
2023/10/22 10:19:39;;;;;;;;;;;;;;;15.63;100.00;100510.00;5035954;28;19916;-75
2023/10/22 10:22:05;;;;;;;;;;;;;;;15.52;100.00;100503.75;5035080;28;20473;-76
2023/10/22 10:24:30;;;;;;;;;;;;;;;15.82;100.00;100511.94;5038146;28;19925;-74
2023/10/22 10:26:56;;;;;;;;;;;;;;;15.88;100.00;100514.06;5033409;28;19920;-76
2023/10/22 10:29:26;;;;;;;;;;;;;;;15.98;100.00;100513.06;5025203;28;19931;-75
2023/10/22 10:31:52;;;;;;;;;;;;;;;15.83;100.00;100517.16;5024701;28;19928;-76
2023/10/22 10:34:39;;;;;;;;;;;;;;;15.92;100.00;100524.38;5034073;28;19920;-77
2023/10/22 10:37:20;;;;;;;;;;;;;;;16.03;100.00;100532.31;5016154;28;20013;-75
2023/10/22 10:39:47;;;;;;;;;;;;;;;15.99;100.00;100527.38;5034306;28;19917;-76
2023/10/22 10:42:13;;;;;;;;;;;;;;;15.73;100.00;100535.09;5042145;28;20811;-75
2023/10/22 10:44:54;;;;;;;;;;;;;;;15.53;100.00;100529.63;5030819;28;19921;-76
2023/10/22 10:47:22;;;;;;;;;;;;;;;15.92;100.00;100537.84;5035439;28;19923;-76
2023/10/22 10:49:50;;;;;;;;;;;;;;;16.17;100.00;100539.13;5027985;28;20846;-76
2023/10/22 10:52:15;;;;;;;;;;;;;;;16.18;100.00;100540.00;5034245;28;20829;-75
2023/10/22 10:54:40;;;;;;;;;;;;;;;16.12;100.00;100535.19;5031371;28;20889;-75
2023/10/22 10:57:06;;;;;;;;;;;;;;;16.30;100.00;100541.53;5038468;28;33749;-76
2023/10/22 10:59:35;;;;;;;;;;;;;;;16.15;100.00;100538.41;5032527;28;19986;-76
2023/10/22 11:02:01;;;;;;;;;;;;;;;16.28;100.00;100532.78;5028160;28;19917;-74
2023/10/22 11:04:27;;;;;;;;;;;;;;;16.58;100.00;100542.53;5031869;28;20039;-75
2023/10/22 11:06:52;;;;;;;;;;;;;;;16.54;100.00;100539.25;5030890;28;19969;-75
2023/10/22 11:09:18;;;;;;;;;;;;;;;16.55;100.00;100548.19;5029384;28;20023;-76
2023/10/22 11:11:55;;;;;;;;;;;;;;;16.14;100.00;100542.09;5027774;28;20250;-74
2023/10/22 11:14:20;;;;;;;;;;;;;;;15.84;100.00;100548.44;5022698;28;19952;-77
2023/10/22 11:16:56;;;;;;;;;;;;;;;15.88;100.00;100540.94;5027439;28;20793;-77
2023/10/22 11:19:25;;;;;;;;;;;;;;;16.00;100.00;100545.19;5032792;28;20035;-74
2023/10/22 11:21:51;;;;;;;;;;;;;;;16.22;100.00;100539.56;5031308;28;20261;-75
2023/10/22 11:24:18;;;;;;;;;;;;;;;16.30;100.00;100541.53;5031302;28;20003;-76
2023/10/22 11:26:43;;;;;;;;;;;;;;;16.39;100.00;100545.22;5040689;28;20439;-75
2023/10/22 11:29:09;;;;;;;;;;;;;;;16.51;100.00;100541.38;5049445;28;19955;-77
2023/10/22 11:31:34;;;;;;;;;;;;;;;16.45;100.00;100550.88;5029710;28;20071;-74
2023/10/22 11:34:15;;;;;;;;;;;;;;;16.18;100.00;100558.81;5030876;28;19921;-75
2023/10/22 11:36:40;;;;;;;;;;;;;;;16.49;100.00;100552.31;5028935;28;19925;-76
2023/10/22 11:39:15;;;;;;;;;;;;;;;16.64;100.00;100550.03;5038979;28;19940;-77
2023/10/22 11:41:41;;;;;;;;;;;;;;;16.85;100.00;100557.97;5032792;28;19951;-76
2023/10/22 11:44:08;;;;;;;;;;;;;;;16.98;100.00;100558.50;5035496;28;20011;-75
2023/10/22 11:46:43;;;;;;;;;;;;;;;16.83;100.00;100555.41;5042105;28;19943;-75
2023/10/22 11:49:09;;;;;;;;;;;;;;;16.90;100.00;100565.59;5033160;28;19935;-74
2023/10/22 11:51:43;;;;;;;;;;;;;;;16.66;100.00;100566.03;5035837;28;38202;-74
2023/10/22 11:54:09;;;;;;;;;;;;;;;16.80;100.00;100571.00;5035624;28;19928;-75
2023/10/22 11:56:34;;;;;;;;;;;;;;;16.49;100.00;100567.59;5027650;28;20122;-75
2023/10/22 11:58:59;;;;;;;;;;;;;;;16.27;100.00;100574.13;5031359;28;19923;-75
2023/10/22 12:01:25;;;;;;;;;;;;;;;16.16;100.00;100580.47;5036046;28;37219;-76
2023/10/22 12:03:50;;;;;;;;;;;;;;;16.18;100.00;100581.19;5029069;28;19928;-75
2023/10/22 12:06:15;;;;;;;;;;;;;;;16.16;100.00;100577.78;5029964;28;38165;-74
2023/10/22 12:08:40;;;;;;;;;;;;;;;16.18;100.00;100585.72;5038713;28;19917;-75
2023/10/22 12:11:06;;;;;;;;;;;;;;;16.24;100.00;100585.16;5028814;28;19923;-75
2023/10/22 12:13:31;;;;;;;;;;;;;;;16.56;100.00;100591.09;5031036;28;19921;-75
2023/10/22 12:15:56;;;;;;;;;;;;;;;16.51;100.00;100595.22;5027458;28;20854;-74
2023/10/22 12:18:23;;;;;;;;;;;;;;;16.31;100.00;100592.53;5031632;28;19921;-77
2023/10/22 12:20:48;;;;;;;;;;;;;;;16.52;100.00;100600.47;5031400;28;19916;-76
2023/10/22 12:23:14;;;;;;;;;;;;;;;16.70;100.00;100600.59;5031029;28;19921;-77
2023/10/22 12:25:39;;;;;;;;;;;;;;;16.68;100.00;100602.59;5034880;28;19920;-75